Time;durP1;ratioP1;P1;durP2;ratioP2;P2;SDS_P1;SDS_P2;PMS_P1;PMS_P2;Temp;Humidity;BMP_temperature;BMP_pressure;BME280_temperature;BME280_humidity;BME280_pressure;Samples;Min_cycle;Max_cycle;Signal;HPM_P1;HPM_P2
2023/05/05 00:00:59;;;;;;;4.70;2.80;;;19.20;84.40;;;;;;4175335;28;20045;-70
2023/05/05 00:03:00;;;;;;;4.38;2.35;;;19.30;84.70;;;;;;4174950;28;20091;-70
2023/05/05 00:05:00;;;;;;;7.30;3.10;;;19.20;84.20;;;;;;4178075;28;20029;-71
2023/05/05 00:07:01;;;;;;;4.63;2.78;;;19.20;84.10;;;;;;4176256;28;20029;-70
2023/05/05 00:09:02;;;;;;;8.18;3.33;;;19.20;85.00;;;;;;4178766;28;20043;-70
2023/05/05 00:11:02;;;;;;;4.47;2.95;;;19.20;85.50;;;;;;4174884;28;20041;-70
2023/05/05 00:13:03;;;;;;;3.53;2.78;;;19.20;85.00;;;;;;4177592;28;20048;-70
2023/05/05 00:15:04;;;;;;;3.95;2.63;;;19.20;85.20;;;;;;4178273;28;20032;-71
2023/05/05 00:17:05;;;;;;;5.53;2.78;;;19.10;85.20;;;;;;4178037;28;20049;-70
2023/05/05 00:19:05;;;;;;;4.35;2.70;;;19.10;85.20;;;;;;4178705;28;20399;-71
2023/05/05 00:21:06;;;;;;;4.43;2.40;;;19.10;86.10;;;;;;4176600;28;20080;-70
2023/05/05 00:23:07;;;;;;;3.83;2.40;;;19.10;85.70;;;;;;4177612;28;20037;-70
2023/05/05 00:25:08;;;;;;;3.78;2.72;;;19.10;85.90;;;;;;4177656;28;20037;-71
2023/05/05 00:27:09;;;;;;;5.05;2.67;;;19.00;85.70;;;;;;4174771;28;20059;-70
2023/05/05 00:29:10;;;;;;;4.18;2.50;;;19.00;86.10;;;;;;4177653;28;20033;-70
2023/05/05 00:31:10;;;;;;;3.08;2.45;;;19.10;86.20;;;;;;4176332;28;20045;-70
2023/05/05 00:33:11;;;;;;;5.07;2.65;;;19.00;86.00;;;;;;4177532;28;20045;-71
2023/05/05 00:35:12;;;;;;;3.72;2.63;;;18.90;86.20;;;;;;4177506;28;20033;-71
2023/05/05 00:37:12;;;;;;;4.47;2.80;;;19.00;86.80;;;;;;4180013;28;20044;-71
2023/05/05 00:39:13;;;;;;;3.30;2.70;;;19.00;87.40;;;;;;4178234;28;20036;-69
2023/05/05 00:41:14;;;;;;;4.68;2.60;;;19.00;87.40;;;;;;4174169;28;20030;-69
2023/05/05 00:43:15;;;;;;;5.25;2.85;;;18.90;87.30;;;;;;4175216;28;20033;-68
2023/05/05 00:45:17;;;;;;;3.25;2.60;;;19.00;88.30;;;;;;4176847;28;20040;-67
2023/05/05 00:47:18;;;;;;;3.13;2.42;;;18.90;88.00;;;;;;4177887;28;20052;-67
2023/05/05 00:49:19;;;;;;;3.15;2.45;;;18.90;88.20;;;;;;4178098;28;20086;-68
2023/05/05 00:51:21;;;;;;;2.95;2.40;;;18.90;88.50;;;;;;4176841;28;20462;-68
2023/05/05 00:53:22;;;;;;;3.87;2.60;;;18.90;89.60;;;;;;4177619;28;20033;-68
2023/05/05 00:55:23;;;;;;;4.28;2.70;;;18.90;89.70;;;;;;4175582;28;20279;-68
2023/05/05 00:57:24;;;;;;;2.85;2.35;;;18.90;90.10;;;;;;4177986;28;20132;-68
2023/05/05 00:59:28;;;;;;;3.67;2.67;;;18.90;90.20;;;;;;4176236;28;20029;-68
2023/05/05 01:01:29;;;;;;;4.00;2.90;;;18.90;90.10;;;;;;4176534;28;20037;-69
2023/05/05 01:03:29;;;;;;;3.40;2.47;;;18.90;90.40;;;;;;4173650;28;20049;-68
2023/05/05 01:06:14;;;;;;;3.85;2.67;;;18.90;90.90;;;;;;4176959;28;20049;-68
2023/05/05 01:08:37;;;;;;;2.97;2.33;;;19.00;90.60;;;;;;4176523;28;20036;-67
2023/05/05 01:10:44;;;;;;;3.78;2.50;;;18.90;90.50;;;;;;4174799;28;20055;-68
2023/05/05 01:13:21;;;;;;;4.40;2.83;;;18.90;91.50;;;;;;4175069;28;20032;-68
2023/05/05 01:15:30;;;;;;;4.40;2.53;;;18.90;91.80;;;;;;4172852;28;20033;-68
2023/05/05 01:17:46;;;;;;;5.35;2.70;;;18.90;92.70;;;;;;4176935;28;20060;-68
2023/05/05 01:20:01;;;;;;;3.63;2.58;;;18.90;92.50;;;;;;4176275;28;20037;-69
2023/05/05 01:22:06;;;;;;;4.82;3.28;;;18.90;92.80;;;;;;4171484;28;20091;-68
2023/05/05 01:24:18;;;;;;;5.15;2.97;;;18.80;93.00;;;;;;4177379;28;20078;-68
2023/05/05 01:26:51;;;;;;;3.13;2.58;;;18.80;93.30;;;;;;4167328;28;20033;-68
2023/05/05 01:29:16;;;;;;;5.97;2.67;;;18.80;93.30;;;;;;4172870;28;20384;-68
2023/05/05 01:31:51;;;;;;;4.18;3.03;;;18.80;93.50;;;;;;4169309;28;20318;-68
2023/05/05 01:34:02;;;;;;;3.97;3.05;;;18.80;94.20;;;;;;4173605;28;20059;-68
2023/05/05 01:36:10;;;;;;;4.70;2.83;;;18.80;94.30;;;;;;4176250;28;20106;-68
2023/05/05 01:38:20;;;;;;;3.63;2.70;;;18.80;93.90;;;;;;4177306;28;20045;-67
2023/05/05 01:40:25;;;;;;;3.63;2.83;;;18.70;93.90;;;;;;4175657;28;20541;-68
2023/05/05 01:42:28;;;;;;;5.00;2.95;;;18.70;94.50;;;;;;4170446;28;20029;-68
2023/05/05 01:44:30;;;;;;;3.05;2.70;;;18.70;94.50;;;;;;4177049;28;20059;-68
2023/05/05 01:46:34;;;;;;;4.57;2.60;;;18.70;94.50;;;;;;4175906;28;20048;-68
2023/05/05 01:48:35;;;;;;;3.30;2.95;;;18.70;95.00;;;;;;4173116;28;20037;-68
2023/05/05 01:50:37;;;;;;;4.55;3.53;;;18.70;95.50;;;;;;4176432;28;20543;-68
2023/05/05 01:52:40;;;;;;;5.77;3.63;;;18.70;96.00;;;;;;4176389;28;20041;-68
2023/05/05 01:54:42;;;;;;;8.65;3.97;;;18.60;96.50;;;;;;4175766;28;20037;-68
2023/05/05 01:56:45;;;;;;;4.93;3.63;;;18.60;97.00;;;;;;4173889;28;20090;-68
2023/05/05 01:58:46;;;;;;;6.20;3.63;;;18.60;97.60;;;;;;4176095;28;20112;-68
2023/05/05 02:00:48;;;;;;;6.15;4.05;;;18.60;97.70;;;;;;4176035;28;20022;-68
2023/05/05 02:02:49;;;;;;;11.50;4.85;;;18.50;98.30;;;;;;4176493;28;20033;-66
2023/05/05 02:04:51;;;;;;;5.15;3.38;;;18.60;99.10;;;;;;4174607;28;20365;-69
2023/05/05 02:06:54;;;;;;;5.40;3.60;;;18.50;99.10;;;;;;4174784;28;20064;-68
2023/05/05 02:08:57;;;;;;;4.30;3.22;;;18.50;99.20;;;;;;4172629;28;20109;-68
2023/05/05 02:10:58;;;;;;;5.53;4.28;;;18.50;99.90;;;;;;4176016;28;20055;-68
2023/05/05 02:13:01;;;;;;;5.00;3.75;;;18.50;99.90;;;;;;4174365;28;20077;-68
2023/05/05 02:15:03;;;;;;;4.40;3.45;;;18.40;99.90;;;;;;4176284;28;20610;-69
2023/05/05 02:17:04;;;;;;;4.60;3.88;;;18.50;99.90;;;;;;4175310;28;20045;-68
2023/05/05 02:19:05;;;;;;;4.93;3.83;;;18.50;99.90;;;;;;4176943;28;20044;-68
2023/05/05 02:21:06;;;;;;;5.90;3.80;;;18.50;99.90;;;;;;4175629;28;20483;-68
2023/05/05 02:23:07;;;;;;;4.68;4.05;;;18.50;99.90;;;;;;4174900;28;20565;-69
2023/05/05 02:25:08;;;;;;;6.45;4.65;;;18.50;99.90;;;;;;4174141;28;20033;-69
2023/05/05 02:27:10;;;;;;;5.57;4.30;;;18.40;99.90;;;;;;4174426;28;20112;-68
2023/05/05 02:29:21;;;;;;;5.90;4.18;;;18.40;99.90;;;;;;4176483;28;20083;-68
2023/05/05 02:31:24;;;;;;;5.45;4.20;;;18.40;99.90;;;;;;4175133;28;20087;-69
2023/05/05 02:33:28;;;;;;;6.78;4.88;;;18.40;99.90;;;;;;4176066;28;20033;-68
2023/05/05 02:35:36;;;;;;;7.22;5.28;;;18.40;99.90;;;;;;4175149;28;20063;-68
2023/05/05 02:37:40;;;;;;;7.38;4.68;;;18.40;99.90;;;;;;4174763;28;20395;-69
2023/05/05 02:39:48;;;;;;;6.35;4.72;;;18.40;99.90;;;;;;4174562;28;20371;-68
2023/05/05 02:41:51;;;;;;;5.68;4.68;;;18.40;99.90;;;;;;4172757;28;20032;-68
2023/05/05 02:43:54;;;;;;;5.88;4.25;;;18.40;99.90;;;;;;4175435;28;20037;-68
2023/05/05 02:45:55;;;;;;;6.53;4.82;;;18.40;99.90;;;;;;4173812;28;20098;-68
2023/05/05 02:47:56;;;;;;;7.85;6.03;;;18.40;99.90;;;;;;4175881;28;20033;-69
2023/05/05 02:49:57;;;;;;;6.85;5.60;;;18.40;99.90;;;;;;4175368;28;20044;-68
2023/05/05 02:51:57;;;;;;;5.90;5.07;;;18.40;99.90;;;;;;4174842;28;20467;-68
2023/05/05 02:53:59;;;;;;;6.60;4.78;;;18.40;99.90;;;;;;4174805;28;20435;-68
2023/05/05 02:56:00;;;;;;;6.10;4.90;;;18.30;99.90;;;;;;4174988;28;20124;-70
2023/05/05 02:58:07;;;;;;;5.22;4.20;;;18.30;99.90;;;;;;4174263;28;20492;-70
2023/05/05 03:00:37;;;;;;;6.68;4.45;;;18.40;99.90;;;;;;4174460;28;20033;-70
2023/05/05 03:03:02;;;;;;;8.07;5.30;;;18.40;99.90;;;;;;4176123;28;20491;-71
2023/05/05 03:05:12;;;;;;;6.72;5.68;;;18.40;99.90;;;;;;4174185;28;20120;-73
2023/05/05 03:07:20;;;;;;;7.88;5.40;;;18.30;99.90;;;;;;4173820;28;20114;-71
2023/05/05 03:09:36;;;;;;;6.55;5.45;;;18.30;99.90;;;;;;4173371;28;20021;-70
2023/05/05 03:11:48;;;;;;;7.03;5.28;;;18.30;99.90;;;;;;4174251;28;20033;-70
2023/05/05 03:13:53;;;;;;;7.20;5.65;;;18.30;99.90;;;;;;4172734;28;20049;-70
2023/05/05 03:15:54;;;;;;;7.10;6.18;;;18.30;99.90;;;;;;4175154;28;20031;-71
2023/05/05 03:17:56;;;;;;;10.13;6.13;;;18.30;99.90;;;;;;4179185;28;20057;-71
2023/05/05 03:19:58;;;;;;;7.53;6.20;;;18.20;99.90;;;;;;4178397;28;20480;-71
2023/05/05 03:21:59;;;;;;;7.35;5.88;;;18.20;99.90;;;;;;4178466;28;20118;-71
2023/05/05 03:24:00;;;;;;;10.73;6.32;;;18.20;99.90;;;;;;4179235;28;20028;-71
2023/05/05 03:26:00;;;;;;;7.10;5.72;;;18.20;99.90;;;;;;4178182;28;20047;-70
2023/05/05 03:28:01;;;;;;;7.70;5.63;;;18.10;99.90;;;;;;4177550;28;20037;-70
2023/05/05 03:30:02;;;;;;;8.73;5.97;;;18.10;99.90;;;;;;4178543;28;20471;-71
2023/05/05 03:32:03;;;;;;;7.65;5.80;;;18.10;99.90;;;;;;4177096;28;20128;-71
2023/05/05 03:34:04;;;;;;;8.93;5.97;;;18.10;99.90;;;;;;4178560;28;20025;-71
2023/05/05 03:36:05;;;;;;;6.72;5.15;;;18.10;99.90;;;;;;4177618;28;25547;-70
2023/05/05 03:38:06;;;;;;;8.45;5.68;;;18.10;99.90;;;;;;4179118;28;20037;-71
2023/05/05 03:40:08;;;;;;;7.28;5.90;;;18.10;99.90;;;;;;4177129;28;20033;-71
2023/05/05 03:42:08;;;;;;;6.72;5.18;;;18.10;99.90;;;;;;4177795;28;20037;-71
2023/05/05 03:44:09;;;;;;;9.40;5.90;;;18.10;99.90;;;;;;4177159;28;20033;-71
2023/05/05 03:46:10;;;;;;;9.32;6.32;;;18.00;99.90;;;;;;4178144;28;20041;-71
2023/05/05 03:48:10;;;;;;;9.32;6.63;;;17.90;99.90;;;;;;4179016;28;20052;-71
2023/05/05 03:50:11;;;;;;;7.38;5.40;;;17.90;99.90;;;;;;4178125;28;20056;-71
2023/05/05 03:52:12;;;;;;;7.57;5.95;;;17.90;99.90;;;;;;4178911;28;20045;-71
2023/05/05 03:54:12;;;;;;;7.43;5.80;;;17.80;99.90;;;;;;4178210;28;20075;-71
2023/05/05 03:56:13;;;;;;;7.82;6.30;;;17.80;99.90;;;;;;4177236;28;20545;-71
2023/05/05 03:58:13;;;;;;;8.73;6.35;;;17.80;99.90;;;;;;4173533;28;20033;-71
2023/05/05 04:00:14;;;;;;;8.63;6.10;;;17.80;99.90;;;;;;4177381;28;20084;-71
2023/05/05 04:02:15;;;;;;;8.68;5.95;;;17.70;99.90;;;;;;4178082;28;20051;-71
2023/05/05 04:04:16;;;;;;;7.13;5.55;;;17.70;99.90;;;;;;4178546;28;20037;-68
2023/05/05 04:06:16;;;;;;;8.07;5.97;;;17.70;99.90;;;;;;4177745;28;20127;-69
2023/05/05 04:08:17;;;;;;;10.13;6.90;;;17.70;99.90;;;;;;4178666;28;20056;-70
2023/05/05 04:10:17;;;;;;;7.20;5.72;;;17.60;99.90;;;;;;4175681;28;20021;-70
2023/05/05 04:12:18;;;;;;;9.68;6.10;;;17.60;99.90;;;;;;4177789;28;20388;-70
2023/05/05 04:14:18;;;;;;;8.18;5.90;;;17.60;99.90;;;;;;4177944;28;20040;-70
2023/05/05 04:16:19;;;;;;;7.97;5.57;;;17.60;99.90;;;;;;4177166;28;20037;-71
2023/05/05 04:18:20;;;;;;;8.15;6.25;;;17.60;99.90;;;;;;4178500;28;20041;-70
2023/05/05 04:20:20;;;;;;;7.88;6.68;;;17.50;99.90;;;;;;4177693;28;20021;-70
2023/05/05 04:22:21;;;;;;;6.82;5.88;;;17.50;99.90;;;;;;4178145;28;20025;-71
2023/05/05 04:24:23;;;;;;;8.13;6.28;;;17.50;99.90;;;;;;4175572;28;20041;-70
2023/05/05 04:26:24;;;;;;;8.32;6.78;;;17.50;99.90;;;;;;4174053;28;20484;-71
2023/05/05 04:28:24;;;;;;;10.70;8.43;;;17.50;99.90;;;;;;4175040;28;20116;-70
2023/05/05 04:30:25;;;;;;;10.02;7.15;;;17.50;99.90;;;;;;4176624;28;20275;-70
2023/05/05 04:32:26;;;;;;;10.23;7.70;;;17.50;99.90;;;;;;4177679;28;20175;-71
2023/05/05 04:34:26;;;;;;;8.48;7.00;;;17.50;99.90;;;;;;4178162;28;20033;-70
2023/05/05 04:36:27;;;;;;;10.00;8.18;;;17.50;99.90;;;;;;4176941;28;20025;-70
2023/05/05 04:38:27;;;;;;;11.15;8.77;;;17.50;99.90;;;;;;4177973;28;20063;-70
2023/05/05 04:40:28;;;;;;;14.10;8.93;;;17.50;99.90;;;;;;4174102;28;20041;-70
2023/05/05 04:42:29;;;;;;;10.20;8.10;;;17.50;99.90;;;;;;4177244;28;20065;-71
2023/05/05 04:44:30;;;;;;;10.50;7.22;;;17.40;99.90;;;;;;4176762;28;20033;-71
2023/05/05 04:46:30;;;;;;;8.18;6.60;;;17.40;99.90;;;;;;4176702;28;20029;-70
2023/05/05 04:48:33;;;;;;;10.68;8.25;;;17.40;99.90;;;;;;4177390;28;20069;-70
2023/05/05 04:50:33;;;;;;;13.63;8.63;;;17.40;99.90;;;;;;4175296;28;20033;-70
2023/05/05 04:52:34;;;;;;;11.52;8.65;;;17.50;99.90;;;;;;4177707;28;20067;-70
2023/05/05 04:54:35;;;;;;;11.95;8.75;;;17.50;99.90;;;;;;4179584;28;20116;-71
2023/05/05 04:56:36;;;;;;;10.55;8.15;;;17.50;99.90;;;;;;4177033;28;20110;-71
2023/05/05 04:58:37;;;;;;;11.77;8.43;;;17.50;99.90;;;;;;4176914;28;20142;-71
2023/05/05 05:00:37;;;;;;;10.73;8.00;;;17.50;99.90;;;;;;4176839;28;20098;-75
2023/05/05 05:02:38;;;;;;;9.55;7.95;;;17.50;99.90;;;;;;4177840;28;20056;-75
2023/05/05 05:04:38;;;;;;;11.35;8.43;;;17.50;99.90;;;;;;4177851;28;20025;-75
2023/05/05 05:06:39;;;;;;;10.93;8.48;;;17.50;99.90;;;;;;4176271;28;20041;-75
2023/05/05 05:08:40;;;;;;;11.05;8.50;;;17.50;99.90;;;;;;4177383;28;20549;-76
2023/05/05 05:10:41;;;;;;;12.45;8.98;;;17.50;99.90;;;;;;4176164;28;20475;-74
2023/05/05 05:12:41;;;;;;;11.27;9.23;;;17.50;99.90;;;;;;4174434;28;20483;-75
2023/05/05 05:14:42;;;;;;;12.68;9.43;;;17.50;99.90;;;;;;4173919;28;20025;-75
2023/05/05 05:16:42;;;;;;;12.30;9.77;;;17.50;99.90;;;;;;4172993;28;20040;-74
2023/05/05 05:18:43;;;;;;;14.52;10.43;;;17.50;99.90;;;;;;4172345;28;20491;-75
2023/05/05 05:20:44;;;;;;;12.93;9.55;;;17.50;99.90;;;;;;4171368;28;20045;-75
2023/05/05 05:22:45;;;;;;;12.68;10.02;;;17.50;99.90;;;;;;4169154;28;20025;-74
2023/05/05 05:24:45;;;;;;;15.88;9.80;;;17.50;99.90;;;;;;4166384;28;20057;-73
2023/05/05 05:26:46;;;;;;;10.98;8.65;;;17.40;99.90;;;;;;4167419;28;20073;-72
2023/05/05 05:28:46;;;;;;;12.15;10.00;;;17.50;99.90;;;;;;4168617;28;20040;-71
2023/05/05 05:30:47;;;;;;;13.38;10.60;;;17.50;99.90;;;;;;4170298;28;20475;-71
2023/05/05 05:32:47;;;;;;;13.20;9.68;;;17.50;99.90;;;;;;4172431;28;20059;-68
2023/05/05 05:34:48;;;;;;;12.75;10.57;;;17.50;99.90;;;;;;4174471;28;20542;-73
2023/05/05 05:36:49;;;;;;;11.70;9.40;;;17.50;99.90;;;;;;4172144;28;20021;-73
2023/05/05 05:38:50;;;;;;;12.10;9.68;;;17.50;99.90;;;;;;4173537;28;20342;-74
2023/05/05 05:40:53;;;;;;;13.60;9.82;;;17.50;99.90;;;;;;4169350;28;20045;-74
2023/05/05 05:42:53;;;;;;;12.13;9.90;;;17.50;99.90;;;;;;4168927;28;20124;-74
2023/05/05 05:44:54;;;;;;;14.25;10.20;;;17.60;99.90;;;;;;4172054;28;20063;-71
2023/05/05 05:46:55;;;;;;;12.63;10.05;;;17.60;99.90;;;;;;4164757;28;20044;-74
2023/05/05 05:48:56;;;;;;;13.15;10.13;;;17.70;99.90;;;;;;4170975;28;20033;-75
2023/05/05 05:50:56;;;;;;;13.38;11.05;;;17.70;99.90;;;;;;4172121;28;20036;-74
2023/05/05 05:52:57;;;;;;;13.68;10.45;;;17.70;99.90;;;;;;4174654;28;20415;-75
2023/05/05 05:54:57;;;;;;;12.75;10.07;;;17.70;99.90;;;;;;4171340;28;20260;-72
2023/05/05 05:56:58;;;;;;;13.73;11.15;;;17.80;99.90;;;;;;4172214;28;20040;-72
2023/05/05 05:59:00;;;;;;;13.45;10.80;;;17.80;99.90;;;;;;4174232;28;20061;-72
2023/05/05 06:01:01;;;;;;;13.63;9.73;;;17.80;99.90;;;;;;4169852;28;20079;-72
2023/05/05 06:03:01;;;;;;;16.42;11.95;;;17.90;99.90;;;;;;4173072;28;20314;-72
2023/05/05 06:05:02;;;;;;;14.00;10.75;;;17.80;99.90;;;;;;4173049;28;20045;-73
2023/05/05 06:07:02;;;;;;;17.73;12.88;;;17.80;99.90;;;;;;4172650;28;20033;-72
2023/05/05 06:09:03;;;;;;;18.50;12.27;;;17.90;99.90;;;;;;4172209;28;20032;-72
2023/05/05 06:11:03;;;;;;;14.95;10.90;;;17.80;99.90;;;;;;4170813;28;20029;-72
2023/05/05 06:13:04;;;;;;;16.48;11.27;;;17.90;99.90;;;;;;4172090;28;20040;-72
2023/05/05 06:15:05;;;;;;;14.27;9.98;;;17.90;99.90;;;;;;4170457;28;20033;-73
2023/05/05 06:17:06;;;;;;;12.02;9.88;;;17.90;99.90;;;;;;4171517;28;20112;-72
2023/05/05 06:19:08;;;;;;;16.30;10.15;;;18.00;99.90;;;;;;4172809;28;20057;-72
2023/05/05 06:21:09;;;;;;;12.80;9.57;;;18.00;99.90;;;;;;4172209;28;20095;-72
2023/05/05 06:23:09;;;;;;;14.13;10.65;;;18.20;99.90;;;;;;4171693;28;20033;-72
2023/05/05 06:25:10;;;;;;;12.52;9.73;;;18.30;99.90;;;;;;4171465;28;20554;-72
2023/05/05 06:27:11;;;;;;;12.85;9.48;;;18.50;99.90;;;;;;4171319;28;20033;-71
2023/05/05 06:29:11;;;;;;;12.38;9.57;;;18.80;99.90;;;;;;4164749;28;20397;-71
2023/05/05 06:31:13;;;;;;;11.02;8.50;;;18.90;99.90;;;;;;4170739;28;20112;-71
2023/05/05 06:33:13;;;;;;;10.13;8.07;;;19.10;99.90;;;;;;4171154;28;20056;-72
2023/05/05 06:35:14;;;;;;;16.70;9.68;;;19.30;99.90;;;;;;4170138;28;20037;-71
2023/05/05 06:37:14;;;;;;;10.98;8.25;;;19.40;99.90;;;;;;4172618;28;20066;-72
2023/05/05 06:39:15;;;;;;;13.38;8.57;;;19.50;99.90;;;;;;4169533;28;20502;-71
2023/05/05 06:41:15;;;;;;;10.02;8.15;;;19.70;99.90;;;;;;4169057;28;20048;-71
2023/05/05 06:43:17;;;;;;;12.13;9.63;;;19.80;99.90;;;;;;4171027;28;20061;-71
2023/05/05 06:45:17;;;;;;;11.32;8.93;;;19.80;99.90;;;;;;4168836;28;20470;-71
2023/05/05 06:47:18;;;;;;;10.93;8.90;;;19.80;99.90;;;;;;4172129;28;20037;-70
2023/05/05 06:49:18;;;;;;;11.63;8.30;;;19.90;99.90;;;;;;4172207;28;20029;-70
2023/05/05 06:51:19;;;;;;;12.40;9.27;;;20.00;99.90;;;;;;4170616;28;20147;-71
2023/05/05 06:53:20;;;;;;;9.55;7.22;;;20.00;99.90;;;;;;4170432;28;20033;-70
2023/05/05 06:55:22;;;;;;;10.38;7.38;;;20.00;99.90;;;;;;4169161;28;20032;-70
2023/05/05 06:57:22;;;;;;;9.60;7.93;;;20.00;99.90;;;;;;4169800;28;20037;-71
2023/05/05 06:59:23;;;;;;;9.27;6.93;;;20.00;99.90;;;;;;4170209;28;20037;-71
2023/05/05 07:01:23;;;;;;;9.13;7.32;;;20.00;99.90;;;;;;4170642;28;20102;-70
2023/05/05 07:03:25;;;;;;;11.18;7.18;;;20.10;99.90;;;;;;4172542;28;20041;-70
2023/05/05 07:05:26;;;;;;;9.80;7.13;;;20.10;99.90;;;;;;4172496;28;20396;-71
2023/05/05 07:07:26;;;;;;;9.35;6.63;;;20.20;99.90;;;;;;4171319;28;20045;-70
2023/05/05 07:09:27;;;;;;;7.47;6.15;;;20.30;99.90;;;;;;4172513;28;20040;-70
2023/05/05 07:11:27;;;;;;;11.13;6.65;;;20.30;99.90;;;;;;4168627;28;21223;-70
2023/05/05 07:13:28;;;;;;;10.13;7.28;;;20.40;99.90;;;;;;4170637;28;20424;-70
2023/05/05 07:15:28;;;;;;;9.55;6.57;;;20.40;99.90;;;;;;4171110;28;20159;-71
2023/05/05 07:17:29;;;;;;;6.78;5.85;;;20.40;99.90;;;;;;4169469;28;20463;-69
2023/05/05 07:19:30;;;;;;;6.18;4.93;;;20.50;99.90;;;;;;4170699;28;20064;-70
2023/05/05 07:21:33;;;;;;;6.38;5.10;;;20.60;99.90;;;;;;4165321;28;20079;-69
2023/05/05 07:23:36;;;;;;;6.53;4.88;;;20.70;99.90;;;;;;4171028;28;20084;-69
2023/05/05 07:25:36;;;;;;;;;;;20.90;99.90;;;;;;4172247;28;20086;-69
2023/05/05 07:27:38;;;;;;;10.75;5.78;;;21.00;99.90;;;;;;4170480;28;19916;-69
2023/05/05 07:29:38;;;;;;;6.90;5.25;;;21.00;99.90;;;;;;4170210;28;20037;-69
2023/05/05 07:31:39;;;;;;;6.80;5.15;;;21.10;99.90;;;;;;4167550;28;20045;-70
2023/05/05 07:33:40;;;;;;;7.93;5.35;;;21.20;99.90;;;;;;4169569;28;20107;-69
2023/05/05 07:35:40;;;;;;;7.78;4.72;;;21.20;99.90;;;;;;4169331;28;20045;-69
2023/05/05 07:37:41;;;;;;;9.40;5.95;;;21.20;99.90;;;;;;4167283;28;20044;-69
2023/05/05 07:39:41;;;;;;;6.38;4.53;;;21.20;99.90;;;;;;4171070;28;20041;-70
2023/05/05 07:41:42;;;;;;;6.13;4.50;;;21.30;99.90;;;;;;4169226;28;20655;-70
2023/05/05 07:43:43;;;;;;;7.35;4.97;;;21.40;99.90;;;;;;4170391;28;20090;-70
2023/05/05 07:45:43;;;;;;;6.55;4.63;;;21.50;99.90;;;;;;4169830;28;20037;-69
2023/05/05 07:47:44;;;;;;;6.90;5.15;;;21.50;99.90;;;;;;4170953;28;20037;-69
2023/05/05 07:49:44;;;;;;;9.80;5.90;;;21.60;99.90;;;;;;4172422;28;20029;-68
2023/05/05 07:51:46;;;;;;;10.20;6.18;;;21.60;99.90;;;;;;4170555;28;20116;-68
2023/05/05 07:53:46;;;;;;;6.38;5.13;;;21.60;99.90;;;;;;4171695;28;20037;-69
2023/05/05 07:55:47;;;;;;;7.75;5.20;;;21.70;99.90;;;;;;4169198;28;20094;-69
2023/05/05 07:57:48;;;;;;;8.73;5.22;;;21.80;99.90;;;;;;4169661;28;20048;-69
2023/05/05 07:59:49;;;;;;;12.05;6.25;;;21.90;99.90;;;;;;4168488;28;20033;-68
2023/05/05 08:01:49;;;;;;;9.45;5.45;;;21.90;99.90;;;;;;4169450;28;20033;-70
2023/05/05 08:03:50;;;;;;;8.85;5.80;;;21.90;99.90;;;;;;4173894;28;20059;-70
2023/05/05 08:05:53;;;;;;;7.30;5.53;;;22.00;99.90;;;;;;4173074;28;20025;-69
2023/05/05 08:07:53;;;;;;;5.95;4.22;;;22.00;99.90;;;;;;4172797;28;20025;-69
2023/05/05 08:09:54;;;;;;;7.60;5.57;;;22.00;99.90;;;;;;4175228;28;20187;-69
2023/05/05 08:11:55;;;;;;;7.90;5.18;;;22.10;99.90;;;;;;4171168;28;20045;-68
2023/05/05 08:13:55;;;;;;;7.63;5.20;;;22.20;99.90;;;;;;4172769;28;20072;-69
2023/05/05 08:15:56;;;;;;;7.10;4.80;;;22.20;99.90;;;;;;4171582;28;20036;-69
2023/05/05 08:17:56;;;;;;;6.68;5.20;;;22.30;99.90;;;;;;4173143;28;20072;-68
2023/05/05 08:19:57;;;;;;;6.22;4.35;;;22.40;99.90;;;;;;4174525;28;20037;-68
2023/05/05 08:21:57;;;;;;;7.30;4.22;;;22.40;99.90;;;;;;4171815;28;20596;-68
2023/05/05 08:23:58;;;;;;;5.38;4.03;;;22.40;99.90;;;;;;4173849;28;20427;-67
2023/05/05 08:25:59;;;;;;;7.43;5.05;;;22.50;99.90;;;;;;4171563;28;20060;-69
2023/05/05 08:28:00;;;;;;;6.38;4.93;;;22.60;99.90;;;;;;4173893;28;20507;-69
2023/05/05 08:30:02;;;;;;;6.95;5.47;;;22.70;99.90;;;;;;4174039;28;20044;-68
2023/05/05 08:32:02;;;;;;;8.40;5.53;;;22.70;99.90;;;;;;4171923;28;20031;-69
2023/05/05 08:34:06;;;;;;;8.50;5.22;;;22.80;99.90;;;;;;4172742;28;20500;-69
2023/05/05 08:36:07;;;;;;;6.97;4.75;;;22.80;99.90;;;;;;4173646;28;20041;-68
2023/05/05 08:38:09;;;;;;;6.85;4.05;;;22.90;99.90;;;;;;4173002;28;20033;-68
2023/05/05 08:40:12;;;;;;;6.45;4.53;;;23.00;99.90;;;;;;4171950;28;20545;-69
2023/05/05 08:42:13;;;;;;;6.20;4.47;;;23.00;99.90;;;;;;4171610;28;20095;-68
2023/05/05 08:44:14;;;;;;;7.63;5.43;;;23.10;99.90;;;;;;4174695;28;20116;-69
2023/05/05 08:46:15;;;;;;;8.73;5.03;;;23.20;99.90;;;;;;4169341;28;20083;-68
2023/05/05 08:48:21;;;;;;;9.70;5.60;;;23.20;99.90;;;;;;4173704;28;20095;-68
2023/05/05 08:50:26;;;;;;;7.53;5.43;;;23.20;99.80;;;;;;4172471;28;20040;-69
2023/05/05 08:52:36;;;;;;;7.03;5.20;;;23.20;99.90;;;;;;4172674;28;20498;-69
2023/05/05 08:54:41;;;;;;;5.65;4.05;;;23.30;99.90;;;;;;4172835;28;20067;-68
2023/05/05 08:56:45;;;;;;;6.57;4.45;;;23.30;99.70;;;;;;4173379;28;20036;-68
2023/05/05 08:58:47;;;;;;;10.02;5.13;;;23.40;98.80;;;;;;4172688;28;20090;-67
2023/05/05 09:00:49;;;;;;;7.35;4.80;;;23.50;99.90;;;;;;4170817;28;20190;-68
2023/05/05 09:02:49;;;;;;;4.85;3.70;;;23.50;98.80;;;;;;4171049;28;20051;-68
2023/05/05 09:04:51;;;;;;;6.22;4.10;;;23.60;98.90;;;;;;4173294;28;20382;-69
2023/05/05 09:06:51;;;;;;;5.43;3.67;;;23.60;98.60;;;;;;4171816;28;20374;-70
2023/05/05 09:08:53;;;;;;;7.35;4.13;;;23.70;98.60;;;;;;4173577;28;20058;-68
2023/05/05 09:10:54;;;;;;;6.38;5.03;;;23.70;98.50;;;;;;4185850;28;20047;-69
2023/05/05 09:12:56;;;;;;;5.88;4.20;;;23.70;98.90;;;;;;4170513;28;20730;-69
2023/05/05 09:14:56;;;;;;;6.38;4.25;;;23.70;98.60;;;;;;4174621;28;20037;-69
2023/05/05 09:16:57;;;;;;;6.10;4.68;;;23.80;98.80;;;;;;4170175;28;20049;-68
2023/05/05 09:19:02;;;;;;;5.70;3.65;;;23.80;98.60;;;;;;4174592;28;20037;-69
2023/05/05 09:21:23;;;;;;;8.77;4.47;;;23.80;98.30;;;;;;4172556;28;20025;-69
2023/05/05 09:23:24;;;;;;;4.38;3.38;;;23.90;97.50;;;;;;4172632;28;20033;-68
2023/05/05 09:25:24;;;;;;;6.88;3.97;;;23.90;97.70;;;;;;4173289;28;20047;-69
2023/05/05 09:27:26;;;;;;;4.32;3.78;;;24.00;97.60;;;;;;4174222;28;20044;-69
2023/05/05 09:29:27;;;;;;;4.35;3.40;;;24.00;97.20;;;;;;4172426;28;20043;-69
2023/05/05 09:31:29;;;;;;;5.25;3.58;;;24.00;97.00;;;;;;4170715;28;20124;-70
2023/05/05 09:33:30;;;;;;;9.77;3.50;;;24.00;98.10;;;;;;4172245;28;20037;-70
2023/05/05 09:35:54;;;;;;;10.65;3.92;;;24.10;98.50;;;;;;4172969;28;20041;-70
2023/05/05 09:37:54;;;;;;;;;;;24.10;98.30;;;;;;4173015;28;20107;-70
2023/05/05 09:39:57;;;;;;;7.40;3.72;;;24.00;97.40;;;;;;4171946;28;20086;-69
2023/05/05 09:41:57;;;;;;;5.10;4.13;;;24.00;98.40;;;;;;4172829;28;20029;-70
2023/05/05 09:43:58;;;;;;;7.55;4.53;;;24.00;98.70;;;;;;4171878;28;20366;-70
2023/05/05 09:46:06;;;;;;;7.22;4.38;;;24.00;98.90;;;;;;4172494;28;20123;-70
2023/05/05 09:48:07;;;;;;;6.65;4.40;;;24.00;98.50;;;;;;4171067;28;20350;-69
2023/05/05 09:50:10;;;;;;;5.63;3.70;;;24.10;98.20;;;;;;4171605;28;20052;-70
2023/05/05 09:52:15;;;;;;;6.82;4.10;;;24.00;97.80;;;;;;4172495;28;20041;-70
2023/05/05 09:54:27;;;;;;;4.65;3.22;;;24.10;98.00;;;;;;4172159;28;20388;-70
2023/05/05 09:56:39;;;;;;;4.95;3.22;;;24.00;98.00;;;;;;4172050;28;20492;-70
2023/05/05 09:58:40;;;;;;;6.78;4.28;;;24.10;97.80;;;;;;4172644;28;20555;-70
2023/05/05 10:00:41;;;;;;;5.80;3.55;;;23.90;96.40;;;;;;4167597;28;20037;-70
2023/05/05 10:02:41;;;;;;;5.45;3.72;;;23.90;96.60;;;;;;4170809;28;20032;-70
2023/05/05 10:04:42;;;;;;;6.28;3.38;;;23.90;96.60;;;;;;4171444;28;20060;-68
2023/05/05 10:06:46;;;;;;;5.28;3.65;;;23.90;97.10;;;;;;4171716;28;20033;-67
2023/05/05 10:09:00;;;;;;;4.85;3.47;;;23.90;97.00;;;;;;4172493;28;20048;-67
2023/05/05 10:11:05;;;;;;;5.90;3.90;;;23.90;97.70;;;;;;4169064;28;20033;-70
2023/05/05 10:13:07;;;;;;;7.30;4.68;;;23.90;97.40;;;;;;4169631;28;20033;-70
2023/05/05 10:15:09;;;;;;;7.20;4.72;;;23.90;96.40;;;;;;4170243;28;20037;-72
2023/05/05 10:17:10;;;;;;;;;;;23.80;96.30;;;;;;4171931;28;20045;-70
2023/05/05 10:19:15;;;;;;;7.40;3.70;;;23.70;97.00;;;;;;4171315;28;19966;-70
2023/05/05 10:21:20;;;;;;;8.30;4.03;;;23.70;98.00;;;;;;4170889;28;20025;-70
2023/05/05 10:23:22;;;;;;;5.55;3.50;;;23.70;97.40;;;;;;4170966;28;20033;-70
2023/05/05 10:25:33;;;;;;;5.47;3.67;;;23.70;97.80;;;;;;4168763;28;20025;-71
2023/05/05 10:27:42;;;;;;;7.47;3.65;;;23.70;97.90;;;;;;4171179;28;20040;-70
2023/05/05 10:30:00;;;;;;;5.45;3.38;;;23.70;97.70;;;;;;4169555;28;20029;-70
2023/05/05 10:32:07;;;;;;;4.88;3.15;;;23.70;97.20;;;;;;4167896;28;20071;-70
2023/05/05 10:34:11;;;;;;;4.72;2.92;;;23.70;96.80;;;;;;4168828;28;20051;-70
2023/05/05 10:36:13;;;;;;;9.73;3.50;;;23.60;96.80;;;;;;4169793;28;20041;-71